createdAt,value
2019-02-04T00:00:43.972Z,50.70
2019-02-04T00:03:17.378Z,46.87
2019-02-04T00:05:49.128Z,43.33
2019-02-04T00:08:20.977Z,43.63
2019-02-04T00:10:59.243Z,40.87
2019-02-04T00:13:30.559Z,38.13
2019-02-04T00:16:02.264Z,33.53
2019-02-04T00:18:34.107Z,31.40
2019-02-04T00:21:06.448Z,32.33
2019-02-04T00:23:38.388Z,31.37
2019-02-04T00:26:10.938Z,29.57
2019-02-04T00:28:42.903Z,31.83
2019-02-04T00:31:15.221Z,30.70
2019-02-04T00:33:47.184Z,31.70
2019-02-04T00:36:19.138Z,35.10
2019-02-04T00:38:51.750Z,37.23
2019-02-04T00:41:24.069Z,39.17
2019-02-04T00:43:56.335Z,31.30
2019-02-04T00:46:28.204Z,31.80
2019-02-04T00:49:00.961Z,31.87
2019-02-04T00:51:32.044Z,29.23
2019-02-04T00:54:02.937Z,26.83
2019-02-04T00:56:34.268Z,28.77
2019-02-04T00:59:06.263Z,27.37
2019-02-04T01:01:38.023Z,28.57
2019-02-04T01:04:09.642Z,31.23
2019-02-04T01:06:43.030Z,26.90
2019-02-04T01:09:15.089Z,27.00
2019-02-04T01:11:46.526Z,23.10
2019-02-04T01:14:18.132Z,25.17
2019-02-04T01:16:49.885Z,24.23
2019-02-04T01:19:21.236Z,24.33
2019-02-04T01:21:53.262Z,21.63
2019-02-04T01:24:24.897Z,22.33
2019-02-04T01:26:56.579Z,22.67
2019-02-04T01:29:28.628Z,20.13
2019-02-04T01:32:00.143Z,19.13
2019-02-04T01:34:31.147Z,19.63
2019-02-04T01:37:02.271Z,17.47
2019-02-04T01:39:33.846Z,18.23
2019-02-04T01:42:04.576Z,18.30
2019-02-04T01:44:36.034Z,16.43
2019-02-04T01:47:14.346Z,16.60
2019-02-04T01:49:41.238Z,16.03
2019-02-04T01:52:14.480Z,15.77
2019-02-04T01:54:45.207Z,17.40
2019-02-04T01:57:16.942Z,18.37
2019-02-04T01:59:49.152Z,33.53
2019-02-04T02:02:20.376Z,22.17
2019-02-04T02:04:51.919Z,26.23
2019-02-04T02:07:23.707Z,24.73
2019-02-04T02:09:55.018Z,26.60
2019-02-04T02:12:26.421Z,24.60
2019-02-04T02:14:57.951Z,26.07
2019-02-04T02:17:29.441Z,27.17
2019-02-04T02:20:00.917Z,27.67
2019-02-04T02:22:32.590Z,27.63
2019-02-04T02:25:04.027Z,30.47
2019-02-04T02:27:35.541Z,30.93
2019-02-04T02:30:08.231Z,28.10
2019-02-04T02:32:40.040Z,29.93
2019-02-04T02:35:11.764Z,30.53
2019-02-04T02:37:43.199Z,29.63
2019-02-04T02:40:19.267Z,31.13
2019-02-04T02:42:50.797Z,30.20
2019-02-04T02:45:24.144Z,28.37
2019-02-04T02:47:55.552Z,28.83
2019-02-04T02:50:27.678Z,30.00
2019-02-04T02:52:59.941Z,30.53
2019-02-04T02:55:31.246Z,29.83
2019-02-04T02:58:02.305Z,30.30
2019-02-04T03:00:33.660Z,31.63
2019-02-04T03:03:05.267Z,30.87
2019-02-04T03:05:36.618Z,29.70
2019-02-04T03:08:08.181Z,28.33
2019-02-04T03:10:40.035Z,29.13
2019-02-04T03:13:11.505Z,28.73
2019-02-04T03:15:43.031Z,29.40
2019-02-04T03:18:14.929Z,28.67
2019-02-04T03:20:45.943Z,29.57
2019-02-04T03:23:17.209Z,33.40
2019-02-04T03:25:48.658Z,29.77
2019-02-04T03:28:20.154Z,29.57
2019-02-04T03:30:51.916Z,29.93
2019-02-04T03:33:22.891Z,29.57
2019-02-04T03:35:54.427Z,27.50
2019-02-04T03:38:26.695Z,29.37
2019-02-04T03:40:58.333Z,28.93
2019-02-04T03:43:30.117Z,26.07
2019-02-04T03:46:01.805Z,28.87
2019-02-04T03:48:32.657Z,27.43
2019-02-04T03:51:03.834Z,29.17
2019-02-04T03:53:35.737Z,29.50
2019-02-04T03:56:07.474Z,27.50
2019-02-04T03:58:39.445Z,26.30
2019-02-04T04:01:10.558Z,27.70
2019-02-04T04:03:41.699Z,25.93
2019-02-04T04:06:12.830Z,24.63
2019-02-04T04:08:43.970Z,24.83
2019-02-04T04:11:15.121Z,23.70
2019-02-04T04:13:46.268Z,25.33
2019-02-04T04:16:18.109Z,26.03
2019-02-04T04:18:49.718Z,26.73
2019-02-04T04:21:20.890Z,24.90
2019-02-04T04:23:53.308Z,24.70
2019-02-04T04:26:24.911Z,23.33
2019-02-04T04:28:56.448Z,22.77
2019-02-04T04:31:27.152Z,22.43
2019-02-04T04:33:59.204Z,24.87
2019-02-04T04:36:30.442Z,22.30
2019-02-04T04:39:02.344Z,23.00
2019-02-04T04:41:34.082Z,23.57
2019-02-04T04:44:05.322Z,23.50
2019-02-04T04:46:37.004Z,22.17
2019-02-04T04:49:08.469Z,22.23
2019-02-04T04:51:39.745Z,21.03
2019-02-04T04:54:11.133Z,22.33
2019-02-04T04:56:41.992Z,20.97
2019-02-04T04:59:13.117Z,22.53
2019-02-04T05:01:44.777Z,24.13
2019-02-04T05:04:15.541Z,44.67
2019-02-04T05:06:46.540Z,41.60
2019-02-04T05:09:17.742Z,44.63
2019-02-04T05:11:50.086Z,47.33
2019-02-04T05:14:22.133Z,42.47
2019-02-04T05:16:54.779Z,44.13
2019-02-04T05:19:26.536Z,44.07
2019-02-04T05:21:59.657Z,42.60
2019-02-04T05:24:31.856Z,37.73
2019-02-04T05:27:03.377Z,36.70
2019-02-04T05:29:35.181Z,39.43
2019-02-04T05:32:05.979Z,35.90
2019-02-04T05:34:37.680Z,34.27
2019-02-04T05:37:09.532Z,37.40
2019-02-04T05:39:41.312Z,39.00
2019-02-04T05:42:13.563Z,36.17
2019-02-04T05:44:44.307Z,34.87
2019-02-04T05:47:15.148Z,33.93
2019-02-04T05:49:46.212Z,32.90
2019-02-04T05:52:17.300Z,32.17
2019-02-04T05:54:48.297Z,35.43
2019-02-04T05:57:19.170Z,36.10
2019-02-04T05:59:50.803Z,34.83
2019-02-04T06:02:21.922Z,30.83
2019-02-04T06:04:52.727Z,34.67
2019-02-04T06:07:23.493Z,34.30
2019-02-04T06:09:54.305Z,32.60
2019-02-04T06:12:25.163Z,33.67
2019-02-04T06:14:56.149Z,31.77
2019-02-04T06:17:27.474Z,30.97
2019-02-04T06:19:58.234Z,33.27
2019-02-04T06:22:28.930Z,33.37
2019-02-04T06:24:59.861Z,31.03
2019-02-04T06:27:30.882Z,31.60
2019-02-04T06:30:01.634Z,30.13
2019-02-04T06:32:34.497Z,31.47
2019-02-04T06:35:05.285Z,29.00
2019-02-04T06:37:36.328Z,135.70
2019-02-04T06:40:08.588Z,97.43
2019-02-04T06:42:39.354Z,35.80
2019-02-04T06:45:12.899Z,30.30
2019-02-04T06:47:44.245Z,28.30
2019-02-04T06:50:17.328Z,27.67
2019-02-04T06:52:48.668Z,28.40
2019-02-04T06:55:26.214Z,29.23
2019-02-04T06:57:57.359Z,24.83
2019-02-04T07:00:29.174Z,27.43
2019-02-04T07:03:01.087Z,25.50
2019-02-04T07:05:43.139Z,23.73
2019-02-04T07:08:05.721Z,23.17
2019-02-04T07:10:37.290Z,26.03
2019-02-04T07:13:08.535Z,23.90
2019-02-04T07:15:40.483Z,21.27
2019-02-04T07:18:12.243Z,21.27
2019-02-04T07:20:46.727Z,20.67
2019-02-04T07:23:18.157Z,23.10
2019-02-04T07:25:49.375Z,23.70
2019-02-04T07:28:21.167Z,23.93
2019-02-04T07:30:52.576Z,31.60
2019-02-04T07:33:24.189Z,24.90
2019-02-04T07:35:55.392Z,23.23
2019-02-04T07:38:27.393Z,23.10
2019-02-04T07:41:00.074Z,21.87
2019-02-04T07:43:31.933Z,22.93
2019-02-04T07:46:03.801Z,21.77
2019-02-04T07:48:35.261Z,23.77
2019-02-04T07:51:06.695Z,22.70
2019-02-04T07:53:38.605Z,23.77
2019-02-04T07:56:10.507Z,23.20
2019-02-04T07:58:42.116Z,26.87
2019-02-04T08:01:13.551Z,25.43
2019-02-04T08:03:44.895Z,25.70
2019-02-04T08:06:16.973Z,23.47
2019-02-04T08:08:49.118Z,28.63
2019-02-04T08:11:21.620Z,34.00
2019-02-04T08:13:54.034Z,31.03
2019-02-04T08:16:26.602Z,53.57
2019-02-04T08:18:59.246Z,51.67
2019-02-04T08:21:31.162Z,50.77
2019-02-04T08:24:03.030Z,49.43
2019-02-04T08:26:33.969Z,35.50
2019-02-04T08:29:05.730Z,39.23
2019-02-04T08:31:37.764Z,46.93
2019-02-04T08:34:09.302Z,41.27
2019-02-04T08:36:44.509Z,42.73
2019-02-04T08:39:13.337Z,43.13
2019-02-04T08:41:45.021Z,45.37
2019-02-04T08:44:16.665Z,46.63
2019-02-04T08:46:48.691Z,49.43
2019-02-04T08:49:20.047Z,42.87
2019-02-04T08:51:51.810Z,33.23
2019-02-04T08:54:23.893Z,38.53
2019-02-04T08:56:55.618Z,36.87
2019-02-04T08:59:26.777Z,28.97
2019-02-04T09:01:58.412Z,28.83
2019-02-04T09:04:29.943Z,28.43
2019-02-04T09:07:01.480Z,24.70
2019-02-04T09:09:33.055Z,25.90
2019-02-04T09:12:05.173Z,25.60
2019-02-04T09:14:37.802Z,26.40
2019-02-04T09:17:09.661Z,24.10
2019-02-04T09:19:41.284Z,23.30
2019-02-04T09:22:16.704Z,22.17
2019-02-04T09:24:48.946Z,22.93
2019-02-04T09:27:21.063Z,22.07
2019-02-04T09:29:53.424Z,23.10
2019-02-04T09:32:25.859Z,22.80
2019-02-04T09:34:57.375Z,22.00
2019-02-04T09:37:28.749Z,22.70
2019-02-04T09:39:59.872Z,22.03
2019-02-04T09:42:31.263Z,23.63
2019-02-04T09:45:04.020Z,26.93
2019-02-04T09:47:35.695Z,29.47
2019-02-04T09:50:07.493Z,33.93
2019-02-04T09:52:38.613Z,35.20
2019-02-04T09:55:14.920Z,36.43
2019-02-04T09:57:47.570Z,37.37
2019-02-04T10:00:22.418Z,36.30
2019-02-04T10:02:54.492Z,38.00
2019-02-04T10:05:25.818Z,37.93
2019-02-04T10:07:57.196Z,38.87
2019-02-04T10:10:29.371Z,37.77
2019-02-04T10:13:01.052Z,37.17
2019-02-04T10:15:35.849Z,37.07
2019-02-04T10:18:09.483Z,35.73
2019-02-04T10:20:41.488Z,36.23
2019-02-04T10:23:13.298Z,35.47
2019-02-04T10:25:45.832Z,33.00
2019-02-04T10:28:17.333Z,33.23
2019-02-04T10:30:48.554Z,34.43
2019-02-04T10:33:20.242Z,34.17
2019-02-04T10:35:52.329Z,33.47
2019-02-04T10:38:24.238Z,33.37
2019-02-04T10:40:57.379Z,30.83
2019-02-04T10:43:29.859Z,31.60
2019-02-04T10:46:04.715Z,32.87
2019-02-04T10:48:35.672Z,31.77
2019-02-04T10:51:07.538Z,32.27
2019-02-04T10:53:40.580Z,33.23
2019-02-04T10:56:13.169Z,32.83
2019-02-04T10:58:44.881Z,30.63
2019-02-04T11:01:17.003Z,31.87
2019-02-04T11:03:49.420Z,30.60
2019-02-04T11:06:22.576Z,32.37
2019-02-04T11:08:55.100Z,30.43
2019-02-04T11:11:28.050Z,29.53
2019-02-04T11:13:59.796Z,30.90
2019-02-04T11:16:32.331Z,28.87
2019-02-04T11:19:05.690Z,30.90
2019-02-04T11:21:37.706Z,30.37
2019-02-04T11:24:09.832Z,30.63
2019-02-04T11:26:42.133Z,29.10
2019-02-04T11:29:14.928Z,30.00
2019-02-04T11:31:47.791Z,32.67
2019-02-04T11:34:19.677Z,29.80
2019-02-04T11:36:52.513Z,29.80
2019-02-04T11:39:24.575Z,26.27
2019-02-04T11:41:56.484Z,25.93
2019-02-04T11:44:29.192Z,28.80
2019-02-04T11:47:02.239Z,30.50
2019-02-04T11:49:35.712Z,22.27
2019-02-04T11:52:08.047Z,23.20
2019-02-04T11:54:41.382Z,21.97
2019-02-04T11:57:13.531Z,21.83
2019-02-04T11:59:45.386Z,20.60
2019-02-04T12:02:17.797Z,17.33
2019-02-04T12:04:49.565Z,18.90
2019-02-04T12:07:22.373Z,21.80
2019-02-04T12:09:54.044Z,21.63
2019-02-04T12:12:26.101Z,22.57
2019-02-04T12:14:58.143Z,21.93
2019-02-04T12:17:30.066Z,21.80
2019-02-04T12:20:02.266Z,17.40
2019-02-04T12:22:35.047Z,16.50
2019-02-04T12:25:08.458Z,15.43
2019-02-04T12:27:40.750Z,15.17
2019-02-04T12:30:20.910Z,16.10
2019-02-04T12:32:54.436Z,15.80
2019-02-04T12:35:26.464Z,19.10
2019-02-04T12:37:58.882Z,19.63
2019-02-04T12:40:30.782Z,22.20
2019-02-04T12:43:02.872Z,22.17
2019-02-04T12:45:35.780Z,23.80
2019-02-04T12:48:08.935Z,23.83
2019-02-04T12:50:41.099Z,23.20
2019-02-04T12:53:13.413Z,23.60
2019-02-04T12:55:45.236Z,20.60
2019-02-04T12:58:17.086Z,25.20
2019-02-04T13:00:48.904Z,24.90
2019-02-04T13:03:20.899Z,26.03
2019-02-04T13:05:54.843Z,26.67
2019-02-04T13:08:26.721Z,28.17
2019-02-04T13:10:58.739Z,23.63
2019-02-04T13:13:30.937Z,20.63
2019-02-04T13:16:02.802Z,17.83
2019-02-04T13:18:34.468Z,14.43
2019-02-04T13:21:06.302Z,13.27
2019-02-04T13:23:38.228Z,10.97
2019-02-04T13:26:12.021Z,11.37
2019-02-04T13:28:44.189Z,12.97
2019-02-04T13:31:15.665Z,13.20
2019-02-04T13:33:48.226Z,13.00
2019-02-04T13:36:20.010Z,11.03
2019-02-04T13:38:52.039Z,11.60
2019-02-04T13:41:23.488Z,11.87
2019-02-04T13:43:55.778Z,10.40
2019-02-04T13:46:28.256Z,11.90
2019-02-04T13:49:00.302Z,11.87
2019-02-04T13:51:32.351Z,12.50
2019-02-04T13:54:04.225Z,13.43
2019-02-04T13:56:35.911Z,12.30
2019-02-04T13:59:08.398Z,12.13
2019-02-04T14:01:40.311Z,11.27
2019-02-04T14:04:12.700Z,12.03
2019-02-04T14:06:44.947Z,11.77
2019-02-04T14:09:21.375Z,12.10
2019-02-04T14:11:53.943Z,11.83
2019-02-04T14:14:25.364Z,11.20
2019-02-04T14:16:57.999Z,11.00
2019-02-04T14:19:31.769Z,11.33
2019-02-04T14:22:09.397Z,9.63
2019-02-04T14:24:37.975Z,9.80
2019-02-04T14:27:10.669Z,10.07
2019-02-04T14:29:42.563Z,9.73
2019-02-04T14:32:15.280Z,10.93
2019-02-04T14:34:47.904Z,12.93
2019-02-04T14:37:20.369Z,13.00
2019-02-04T14:39:53.244Z,12.17
2019-02-04T14:42:25.599Z,12.83
2019-02-04T14:45:09.020Z,12.70
2019-02-04T14:48:11.259Z,12.80
2019-02-04T14:51:25.147Z,13.73
2019-02-04T14:54:37.693Z,13.57
2019-02-04T14:57:39.260Z,14.83
2019-02-04T15:00:55.189Z,15.20
2019-02-04T15:04:10.138Z,16.10
2019-02-04T15:07:10.296Z,17.33
2019-02-04T15:10:37.369Z,20.27
2019-02-04T15:13:26.646Z,20.50
2019-02-04T15:16:23.476Z,20.07
2019-02-04T15:19:48.385Z,20.37
2019-02-04T15:22:51.922Z,21.33
2019-02-04T15:25:52.270Z,20.27
2019-02-04T15:29:18.398Z,24.77
2019-02-04T15:32:34.696Z,22.07
2019-02-04T15:36:05.881Z,18.77
2019-02-04T15:38:53.999Z,18.57
2019-02-04T15:42:39.905Z,22.17
2019-02-04T15:45:42.874Z,20.87
2019-02-04T15:48:26.588Z,22.47
2019-02-04T15:51:28.691Z,22.43
2019-02-04T15:54:03.767Z,22.77
2019-02-04T15:56:35.740Z,21.60
2019-02-04T15:59:08.510Z,23.07
2019-02-04T16:01:40.727Z,22.73
2019-02-04T16:04:33.488Z,22.47
2019-02-04T16:07:10.350Z,20.03
2019-02-04T16:09:42.366Z,21.47
2019-02-04T16:12:14.471Z,21.90
2019-02-04T16:14:46.917Z,22.50
2019-02-04T16:17:18.859Z,21.80
2019-02-04T16:19:53.412Z,22.93
2019-02-04T16:22:25.183Z,22.47
2019-02-04T16:24:58.506Z,27.73
2019-02-04T16:27:30.555Z,24.87
2019-02-04T16:30:02.294Z,26.23
2019-02-04T16:32:35.506Z,30.57
2019-02-04T16:35:09.538Z,30.83
2019-02-04T16:37:43.352Z,30.93
2019-02-04T16:40:17.277Z,26.23
2019-02-04T16:42:49.100Z,25.37
2019-02-04T16:45:26.103Z,32.53
2019-02-04T16:47:58.774Z,21.40
2019-02-04T16:50:34.116Z,21.70
2019-02-04T16:53:10.517Z,26.03
2019-02-04T16:55:40.424Z,27.60
2019-02-04T16:58:12.824Z,27.10
2019-02-04T17:00:44.988Z,29.03
2019-02-04T17:03:18.776Z,27.20
2019-02-04T17:05:50.761Z,32.07
2019-02-04T17:08:23.153Z,30.77
2019-02-04T17:10:55.365Z,31.60
2019-02-04T17:13:28.164Z,28.10
2019-02-04T17:16:00.528Z,29.03
2019-02-04T17:18:32.211Z,36.77
2019-02-04T17:21:04.592Z,44.43
2019-02-04T17:23:36.867Z,35.03
2019-02-04T17:26:08.490Z,31.40
2019-02-04T17:28:41.845Z,29.10
2019-02-04T17:31:13.270Z,28.63
2019-02-04T17:33:46.759Z,36.53
2019-02-04T17:36:18.732Z,33.77
2019-02-04T17:38:50.977Z,31.47
2019-02-04T17:41:22.883Z,31.53
2019-02-04T17:43:55.011Z,34.67
2019-02-04T17:46:29.220Z,33.07
2019-02-04T17:49:01.566Z,32.83
2019-02-04T17:51:34.996Z,27.70
2019-02-04T17:54:07.860Z,28.77
2019-02-04T17:56:44.817Z,30.93
2019-02-04T17:59:17.673Z,31.73
2019-02-04T18:01:50.110Z,29.60
2019-02-04T18:04:22.340Z,32.30
2019-02-04T18:06:53.769Z,28.57
2019-02-04T18:09:25.882Z,28.00
2019-02-04T18:11:58.159Z,28.90
2019-02-04T18:14:30.006Z,30.00
2019-02-04T18:17:03.342Z,29.57
2019-02-04T18:19:36.811Z,28.70
2019-02-04T18:22:09.066Z,28.63
2019-02-04T18:24:40.861Z,28.10
2019-02-04T18:27:16.389Z,26.70
2019-02-04T18:29:48.618Z,26.60
2019-02-04T18:32:22.672Z,28.57
2019-02-04T18:34:56.770Z,24.60
2019-02-04T18:37:29.110Z,26.47
2019-02-04T18:40:06.740Z,27.10
2019-02-04T18:42:39.388Z,26.67
2019-02-04T18:45:20.706Z,27.27
2019-02-04T18:47:53.638Z,27.23
2019-02-04T18:50:27.487Z,27.07
2019-02-04T18:53:00.833Z,28.97
2019-02-04T18:55:34.551Z,27.77
2019-02-04T18:58:06.665Z,27.73
2019-02-04T19:00:39.554Z,27.97
2019-02-04T19:03:17.451Z,27.60
2019-02-04T19:05:47.207Z,29.00
2019-02-04T19:08:20.484Z,29.17
2019-02-04T19:10:54.200Z,33.93
2019-02-04T19:13:35.755Z,34.83
2019-02-04T19:16:03.271Z,32.50
2019-02-04T19:18:37.009Z,32.67
2019-02-04T19:21:08.967Z,32.07
2019-02-04T19:23:42.024Z,31.53
2019-02-04T19:26:14.623Z,31.80
2019-02-04T19:28:47.179Z,34.50
2019-02-04T19:31:26.162Z,32.20
2019-02-04T19:33:57.717Z,33.13
2019-02-04T19:36:30.421Z,33.07
2019-02-04T19:39:02.721Z,36.57
2019-02-04T19:41:35.553Z,35.67
2019-02-04T19:44:07.560Z,35.57
2019-02-04T19:46:40.291Z,38.20
2019-02-04T19:49:13.260Z,38.17
2019-02-04T19:51:46.245Z,37.17
2019-02-04T19:54:21.593Z,35.27
2019-02-04T19:56:55.123Z,35.07
2019-02-04T19:59:26.904Z,33.93
2019-02-04T20:01:59.161Z,32.80
2019-02-04T20:04:31.802Z,34.03
2019-02-04T20:07:04.250Z,31.13
2019-02-04T20:09:36.651Z,31.97
2019-02-04T20:12:09.759Z,31.43
2019-02-04T20:14:41.427Z,32.20
2019-02-04T20:17:13.299Z,33.97
2019-02-04T20:19:46.398Z,39.83
2019-02-04T20:22:18.170Z,46.67
2019-02-04T20:24:50.804Z,45.77
2019-02-04T20:27:22.883Z,52.03
2019-02-04T20:29:55.037Z,50.73
2019-02-04T20:32:27.889Z,48.20
2019-02-04T20:35:00.325Z,47.97
2019-02-04T20:37:32.975Z,47.93
2019-02-04T20:40:06.374Z,44.97
2019-02-04T20:42:38.251Z,42.43
2019-02-04T20:45:11.263Z,42.93
2019-02-04T20:47:44.133Z,45.90
2019-02-04T20:50:37.906Z,42.17
2019-02-04T20:53:09.935Z,42.03
2019-02-04T20:55:42.286Z,41.07
2019-02-04T20:58:16.327Z,38.43
2019-02-04T21:00:48.361Z,43.97
2019-02-04T21:03:20.321Z,38.20
2019-02-04T21:05:52.755Z,37.13
2019-02-04T21:08:25.252Z,39.90
2019-02-04T21:10:57.405Z,39.20
2019-02-04T21:13:28.897Z,41.40
2019-02-04T21:16:00.834Z,42.87
2019-02-04T21:18:33.543Z,44.23
2019-02-04T21:21:06.167Z,43.33
2019-02-04T21:23:38.137Z,43.63
2019-02-04T21:26:10.903Z,44.87
2019-02-04T21:28:43.728Z,44.63
2019-02-04T21:31:15.807Z,45.23
2019-02-04T21:33:47.869Z,48.93
2019-02-04T21:36:19.914Z,45.93
2019-02-04T21:38:51.725Z,45.03
2019-02-04T21:41:24.049Z,45.80
2019-02-04T21:43:56.441Z,45.10
2019-02-04T21:46:28.508Z,45.67
2019-02-04T21:49:00.973Z,45.50
2019-02-04T21:51:32.646Z,45.00
2019-02-04T21:54:04.453Z,45.27
2019-02-04T21:56:36.763Z,45.13
2019-02-04T21:59:08.718Z,43.83
2019-02-04T22:01:40.777Z,45.37
2019-02-04T22:04:12.486Z,46.00
2019-02-04T22:06:44.495Z,44.33
2019-02-04T22:09:17.089Z,43.40
2019-02-04T22:11:49.509Z,42.17
2019-02-04T22:14:21.667Z,43.63
2019-02-04T22:16:53.807Z,39.93
2019-02-04T22:19:25.741Z,39.80
2019-02-04T22:21:59.282Z,37.80
2019-02-04T22:24:31.105Z,41.07
2019-02-04T22:27:01.917Z,40.20
2019-02-04T22:29:33.713Z,40.20
2019-02-04T22:32:04.960Z,39.83
2019-02-04T22:34:37.345Z,38.50
2019-02-04T22:37:08.501Z,39.67
2019-02-04T22:39:41.117Z,40.30
2019-02-04T22:42:12.901Z,38.03
2019-02-04T22:44:44.963Z,38.97
2019-02-04T22:47:17.282Z,37.13
2019-02-04T22:49:49.502Z,38.23
2019-02-04T22:52:21.363Z,36.53
2019-02-04T22:54:53.003Z,36.40
2019-02-04T22:57:24.820Z,35.60
2019-02-04T22:59:58.188Z,36.20
2019-02-04T23:02:29.910Z,40.40
2019-02-04T23:05:02.339Z,35.90
2019-02-04T23:07:33.795Z,39.67
2019-02-04T23:10:06.103Z,41.73
2019-02-04T23:12:37.356Z,42.27
2019-02-04T23:15:10.289Z,40.47
2019-02-04T23:17:42.082Z,44.30
2019-02-04T23:20:13.189Z,42.37
2019-02-04T23:22:44.360Z,40.17
2019-02-04T23:25:15.303Z,41.30
2019-02-04T23:27:46.707Z,43.30
2019-02-04T23:30:18.021Z,40.93
2019-02-04T23:32:49.335Z,41.67
2019-02-04T23:35:23.740Z,41.43
2019-02-04T23:37:54.792Z,39.80
2019-02-04T23:40:25.852Z,40.33
2019-02-04T23:42:57.124Z,38.87
2019-02-04T23:45:28.525Z,40.87
2019-02-04T23:48:00.796Z,38.50
2019-02-04T23:50:32.502Z,38.93
2019-02-04T23:53:04.146Z,36.60
2019-02-04T23:55:36.373Z,36.77
2019-02-04T23:58:10.504Z,37.60
